Sherwood, Maryland
Current Conditions -  °F | °C
As of 5:45 AM on Thursday 18 Dec 2014 (Local Time) from KESN Reporting Station
Scattered Clouds Scattered Clouds  
Wind Chill: 30°   Ceiling: Unl
Heat Index: 37°   Visibility: 10mi
Dew Point: 25°   Wind: 12mph
Humidity: 60%   Direction: 330°NNW
Pressure: 30.13"   Gusts: NA
Location:  38.76°N, 76.32°W
Report Text: KESN 181045Z 33010KT 10SM SCT048 03/M04 A3013
Loading
Personal Weather Stations






























Interactive Weather Map New forecast layout! Learn more

10-Day Weather Forecast

Advertisements
Track Severe Weather on mobile